Time;durP1;ratioP1;P1;durP2;ratioP2;P2;SDS_P1;SDS_P2;PMS_P1;PMS_P2;Temp;Humidity;BMP_temperature;BMP_pressure;BME280_temperature;BME280_humidity;BME280_pressure;Samples;Min_cycle;Max_cycle;Signal;HPM_P1;HPM_P2
2021/12/29 00:02:11;;;;;;;10.88;7.55;;;9.10;99.90;;;;;;5114889;28;20224;-51
2021/12/29 00:04:37;;;;;;;9.40;7.78;;;9.10;99.90;;;;;;5114937;28;20179;-51
2021/12/29 00:07:02;;;;;;;9.48;7.03;;;9.10;99.90;;;;;;5114864;28;20191;-52
2021/12/29 00:09:29;;;;;;;14.00;7.15;;;9.10;99.90;;;;;;5115084;28;20529;-52
2021/12/29 00:11:55;;;;;;;9.23;7.05;;;9.10;99.90;;;;;;5114970;28;20227;-51
2021/12/29 00:14:20;;;;;;;9.18;6.43;;;9.10;99.90;;;;;;5114954;28;20173;-50
2021/12/29 00:16:47;;;;;;;8.15;6.80;;;9.10;99.90;;;;;;5114944;28;20196;-52
2021/12/29 00:19:12;;;;;;;7.60;6.13;;;9.10;99.90;;;;;;5114725;28;20175;-58
2021/12/29 00:21:38;;;;;;;12.52;6.45;;;9.10;99.90;;;;;;5114538;28;20185;-51
2021/12/29 00:24:05;;;;;;;7.05;5.50;;;9.10;99.90;;;;;;5114331;28;20184;-53
2021/12/29 00:26:33;;;;;;;11.20;7.80;;;9.10;99.90;;;;;;5114484;28;20573;-51
2021/12/29 00:28:59;;;;;;;12.18;8.57;;;9.10;99.90;;;;;;5096471;28;20175;-51
2021/12/29 00:31:26;;;;;;;11.25;7.32;;;9.10;99.90;;;;;;5114955;28;20226;-52
2021/12/29 00:33:52;;;;;;;11.60;8.60;;;9.10;99.90;;;;;;5114328;28;20160;-53
2021/12/29 00:36:18;;;;;;;13.32;8.63;;;9.10;99.90;;;;;;5114286;28;20168;-55
2021/12/29 00:38:45;;;;;;;11.70;8.13;;;9.00;99.90;;;;;;5114337;28;20268;-54
2021/12/29 00:41:11;;;;;;;14.15;8.57;;;9.00;99.90;;;;;;5114195;28;20244;-56
2021/12/29 00:43:36;;;;;;;14.43;10.05;;;9.10;99.90;;;;;;5114354;28;20594;-54
2021/12/29 00:46:02;;;;;;;12.10;8.05;;;9.00;99.90;;;;;;5114138;28;20165;-54
2021/12/29 00:48:35;;;;;;;12.48;8.30;;;9.10;99.90;;;;;;5114452;28;20172;-51
2021/12/29 00:51:01;;;;;;;9.48;7.68;;;9.10;99.90;;;;;;5114242;28;20176;-56
2021/12/29 00:53:27;;;;;;;9.57;7.65;;;9.10;99.90;;;;;;5114254;28;20534;-52
2021/12/29 00:55:52;;;;;;;10.98;7.85;;;9.10;99.90;;;;;;5113960;28;20161;-61
2021/12/29 00:58:18;;;;;;;10.75;7.00;;;9.10;99.90;;;;;;5113941;28;20633;-59
2021/12/29 01:00:43;;;;;;;7.72;6.22;;;9.00;99.90;;;;;;5113733;28;20196;-59
2021/12/29 01:03:10;;;;;;;10.13;6.90;;;9.10;99.90;;;;;;5095130;28;20236;-55
2021/12/29 01:05:36;;;;;;;10.82;7.22;;;9.10;99.90;;;;;;5095542;28;20528;-55
2021/12/29 01:08:03;;;;;;;10.32;5.95;;;9.10;99.90;;;;;;5113627;28;20179;-55
2021/12/29 01:10:28;;;;;;;8.95;6.75;;;9.10;99.90;;;;;;5114001;28;20288;-56
2021/12/29 01:12:58;;;;;;;11.52;7.05;;;9.10;99.90;;;;;;5113537;28;20207;-59
2021/12/29 01:15:31;;;;;;;12.25;8.70;;;9.10;99.90;;;;;;5113764;28;20184;-57
2021/12/29 01:17:57;;;;;;;10.15;8.00;;;9.00;99.90;;;;;;5114086;28;20172;-58
2021/12/29 01:20:24;;;;;;;11.35;8.35;;;9.10;99.90;;;;;;5113468;28;20172;-57
2021/12/29 01:22:50;;;;;;;9.10;7.03;;;9.10;99.90;;;;;;5113582;28;20204;-55
2021/12/29 01:25:16;;;;;;;10.07;7.10;;;9.10;99.90;;;;;;5113691;28;20658;-56
2021/12/29 01:27:41;;;;;;;10.18;6.90;;;9.10;99.90;;;;;;5113297;28;20165;-49
2021/12/29 01:30:10;;;;;;;8.93;7.20;;;9.10;99.90;;;;;;5113312;28;20172;-50
2021/12/29 01:32:39;;;;;;;8.25;5.97;;;9.10;99.90;;;;;;5113446;28;20192;-49
2021/12/29 01:35:07;;;;;;;8.63;5.25;;;9.10;99.90;;;;;;5112396;28;20156;-50
2021/12/29 01:37:32;;;;;;;7.55;6.75;;;9.10;99.90;;;;;;5113089;28;20173;-49
2021/12/29 01:39:58;;;;;;;12.00;6.63;;;9.10;99.90;;;;;;5113361;28;20165;-49
2021/12/29 01:42:24;;;;;;;8.30;6.80;;;9.00;99.90;;;;;;5112962;28;20204;-51
2021/12/29 01:44:50;;;;;;;8.77;7.28;;;9.10;99.90;;;;;;5113069;28;20160;-49
2021/12/29 01:47:31;;;;;;;9.48;6.70;;;9.10;99.90;;;;;;5112927;28;20251;-49
2021/12/29 01:49:59;;;;;;;8.07;6.72;;;9.10;99.90;;;;;;5113524;28;20164;-50
2021/12/29 01:52:29;;;;;;;7.30;6.38;;;9.10;99.90;;;;;;5113403;28;20177;-50
2021/12/29 01:54:54;;;;;;;8.85;7.47;;;9.10;99.90;;;;;;5112995;28;20161;-49
2021/12/29 01:57:21;;;;;;;9.10;7.57;;;9.10;99.90;;;;;;5112763;28;20157;-50
2021/12/29 01:59:47;;;;;;;8.63;7.38;;;9.10;99.90;;;;;;5112812;28;20164;-50
2021/12/29 02:02:16;;;;;;;8.43;6.93;;;9.10;99.90;;;;;;5112691;28;20201;-50
2021/12/29 02:04:44;;;;;;;9.50;7.40;;;9.10;99.90;;;;;;5112678;28;20662;-51
2021/12/29 02:07:09;;;;;;;8.63;7.72;;;9.10;99.90;;;;;;5112530;28;20177;-51
2021/12/29 02:09:35;;;;;;;8.23;7.40;;;9.10;99.90;;;;;;5112636;28;20562;-50
2021/12/29 02:12:02;;;;;;;9.73;7.80;;;9.10;99.90;;;;;;5112472;28;20272;-50
2021/12/29 02:14:27;;;;;;;6.47;5.80;;;9.10;99.90;;;;;;5112866;28;20172;-52
2021/12/29 02:16:53;;;;;;;8.52;6.10;;;9.10;99.90;;;;;;5112784;28;20173;-50
2021/12/29 02:19:19;;;;;;;7.93;6.75;;;9.10;99.90;;;;;;5112473;28;20167;-52
2021/12/29 02:21:54;;;;;;;10.13;7.22;;;9.10;99.90;;;;;;5112607;28;20207;-52
2021/12/29 02:24:23;;;;;;;11.25;8.10;;;9.10;99.90;;;;;;5112411;28;20915;-50
2021/12/29 02:26:50;;;;;;;13.00;9.35;;;9.10;99.90;;;;;;5112739;28;20536;-50
2021/12/29 02:29:17;;;;;;;9.13;7.75;;;9.10;99.90;;;;;;5094248;28;20169;-51
2021/12/29 02:31:44;;;;;;;12.70;9.10;;;9.00;99.90;;;;;;5112731;28;20527;-49
2021/12/29 02:34:11;;;;;;;8.90;6.82;;;9.10;99.90;;;;;;5112434;28;20631;-50
2021/12/29 02:36:43;;;;;;;11.02;7.80;;;9.00;99.90;;;;;;5112414;28;20669;-50
2021/12/29 02:39:11;;;;;;;13.25;8.50;;;9.10;99.90;;;;;;5112296;28;20678;-50
2021/12/29 02:41:40;;;;;;;6.60;5.22;;;9.10;99.90;;;;;;5112195;28;20192;-49
2021/12/29 02:44:10;;;;;;;13.18;8.88;;;9.10;99.90;;;;;;5112285;28;20173;-51
2021/12/29 02:46:36;;;;;;;11.02;8.23;;;9.10;99.90;;;;;;5113280;28;20169;-52
2021/12/29 02:49:02;;;;;;;9.07;7.90;;;9.10;99.90;;;;;;5116825;28;20172;-50
2021/12/29 02:51:32;;;;;;;13.50;8.80;;;9.10;99.90;;;;;;5116635;28;20640;-50
2021/12/29 02:53:58;;;;;;;11.10;7.88;;;9.10;99.90;;;;;;5116763;28;20204;-49
2021/12/29 02:56:26;;;;;;;11.50;9.23;;;9.10;99.90;;;;;;5116311;28;20163;-57
2021/12/29 02:58:53;;;;;;;12.35;8.35;;;9.10;99.90;;;;;;5116228;28;20199;-54
2021/12/29 03:01:19;;;;;;;13.32;9.05;;;9.10;99.90;;;;;;5116378;28;20305;-53
2021/12/29 03:03:45;;;;;;;11.73;8.13;;;9.10;99.90;;;;;;5116802;28;20200;-51
2021/12/29 03:06:12;;;;;;;12.68;9.05;;;9.00;99.90;;;;;;5116446;28;20179;-53
2021/12/29 03:08:39;;;;;;;10.35;8.43;;;9.00;99.90;;;;;;5116044;28;20230;-56
2021/12/29 03:11:06;;;;;;;13.82;9.75;;;9.00;99.90;;;;;;5115931;28;20299;-51
2021/12/29 03:13:35;;;;;;;15.25;9.18;;;9.10;99.90;;;;;;5116195;28;20171;-53
2021/12/29 03:16:01;;;;;;;11.32;7.72;;;9.10;99.90;;;;;;5115878;28;20193;-52
2021/12/29 03:18:27;;;;;;;12.95;9.00;;;9.10;99.90;;;;;;5116190;28;20579;-56
2021/12/29 03:20:53;;;;;;;11.48;9.35;;;9.00;99.90;;;;;;5115840;28;20200;-50
2021/12/29 03:23:20;;;;;;;11.00;9.50;;;9.00;99.90;;;;;;5115495;28;20250;-57
2021/12/29 03:25:49;;;;;;;13.25;9.05;;;9.10;99.90;;;;;;5115698;28;20168;-51
2021/12/29 03:28:16;;;;;;;10.65;8.13;;;9.00;99.90;;;;;;5115630;28;20176;-51
2021/12/29 03:30:45;;;;;;;11.43;8.00;;;9.10;99.90;;;;;;5115599;28;20165;-50
2021/12/29 03:33:11;;;;;;;10.20;7.00;;;9.00;99.90;;;;;;5115531;28;20294;-50
2021/12/29 03:35:44;;;;;;;9.73;8.10;;;9.00;99.90;;;;;;5115640;28;20235;-51
2021/12/29 03:38:14;;;;;;;12.10;9.30;;;9.00;99.90;;;;;;5115496;28;20172;-50
2021/12/29 03:40:41;;;;;;;17.95;9.18;;;9.00;99.90;;;;;;5115474;28;20157;-50
2021/12/29 03:43:09;;;;;;;10.70;8.55;;;9.00;99.90;;;;;;5115589;28;20299;-51
2021/12/29 03:45:37;;;;;;;17.05;10.10;;;9.00;99.90;;;;;;5115594;28;20246;-50
2021/12/29 03:48:03;;;;;;;16.85;10.25;;;9.00;99.90;;;;;;5115349;28;20524;-53
2021/12/29 03:50:29;;;;;;;12.45;8.02;;;9.00;99.90;;;;;;5115570;28;20252;-50
2021/12/29 03:52:55;;;;;;;14.02;8.63;;;9.00;99.90;;;;;;5115631;28;20211;-50
2021/12/29 03:55:20;;;;;;;10.35;8.15;;;8.90;99.90;;;;;;5115203;28;20221;-50
2021/12/29 03:57:46;;;;;;;9.98;7.90;;;9.00;99.90;;;;;;5114805;28;20659;-51
2021/12/29 04:00:15;;;;;;;11.82;8.20;;;9.00;99.90;;;;;;5114634;28;20224;-50
2021/12/29 04:02:41;;;;;;;12.60;8.45;;;9.00;99.90;;;;;;5115204;28;20196;-51
2021/12/29 04:05:10;;;;;;;10.60;8.38;;;9.00;99.90;;;;;;5115199;28;20195;-50
2021/12/29 04:07:35;;;;;;;12.70;8.63;;;9.00;99.90;;;;;;5114981;28;20161;-49
2021/12/29 04:10:02;;;;;;;11.32;8.40;;;8.90;99.90;;;;;;5096612;28;20164;-49
2021/12/29 04:12:27;;;;;;;14.68;8.93;;;8.90;99.90;;;;;;5114783;28;20315;-49
2021/12/29 04:14:53;;;;;;;10.93;7.75;;;8.90;99.90;;;;;;5114834;28;20252;-50
2021/12/29 04:17:24;;;;;;;13.43;9.25;;;8.90;99.90;;;;;;5114766;28;20175;-49
2021/12/29 04:22:34;;;;;;;12.20;9.00;;;8.90;99.90;;;;;;5114655;28;20211;-51
2021/12/29 04:24:59;;;;;;;12.98;9.18;;;8.90;99.90;;;;;;5115116;28;20173;-50
2021/12/29 04:27:26;;;;;;;16.73;9.18;;;8.90;99.90;;;;;;5096584;28;20184;-56
2021/12/29 04:29:52;;;;;;;11.75;7.88;;;8.90;99.90;;;;;;5096334;28;20164;-48
2021/12/29 04:32:18;;;;;;;16.30;9.40;;;8.90;99.90;;;;;;5114476;28;20164;-50
2021/12/29 04:34:44;;;;;;;16.23;9.02;;;8.90;99.90;;;;;;5114336;28;20172;-51
2021/12/29 04:37:10;;;;;;;10.88;7.88;;;8.90;99.90;;;;;;5114625;28;20282;-50
2021/12/29 04:39:35;;;;;;;12.63;9.15;;;8.90;99.90;;;;;;5114255;28;20243;-50
2021/12/29 04:42:01;;;;;;;16.00;8.80;;;8.80;99.90;;;;;;5114140;28;20200;-50
2021/12/29 04:44:27;;;;;;;11.10;8.27;;;8.90;99.90;;;;;;5114504;28;20169;-55
2021/12/29 04:46:54;;;;;;;10.15;7.68;;;8.80;99.90;;;;;;5114159;28;20207;-56
2021/12/29 04:49:25;;;;;;;13.45;9.07;;;8.80;99.90;;;;;;5114388;28;20192;-57
2021/12/29 04:52:03;;;;;;;10.70;8.05;;;8.80;99.90;;;;;;5114294;28;20161;-58
2021/12/29 04:54:33;;;;;;;11.23;8.13;;;8.80;99.90;;;;;;5114568;28;20544;-56
2021/12/29 04:56:59;;;;;;;10.73;7.07;;;8.80;99.90;;;;;;5114342;28;20608;-52
2021/12/29 04:59:27;;;;;;;12.88;8.82;;;8.80;99.90;;;;;;5113862;28;20176;-57
2021/12/29 05:01:52;;;;;;;13.43;9.43;;;8.90;99.90;;;;;;5113807;28;20196;-56
2021/12/29 05:04:33;;;;;;;13.88;9.30;;;8.80;99.90;;;;;;5113792;28;20651;-58
2021/12/29 05:09:45;;;;;;;13.82;8.57;;;8.80;99.90;;;;;;5113707;28;20217;-57
2021/12/29 05:12:12;;;;;;;14.65;8.73;;;8.80;99.90;;;;;;5113428;28;20216;-58
2021/12/29 05:14:37;;;;;;;13.68;8.55;;;8.80;99.90;;;;;;5113871;28;20213;-55
2021/12/29 05:17:05;;;;;;;13.10;8.52;;;8.80;99.90;;;;;;5113720;28;20565;-56
2021/12/29 05:19:32;;;;;;;16.55;10.05;;;8.80;99.90;;;;;;5113458;28;20176;-57
2021/12/29 05:21:57;;;;;;;12.38;9.23;;;8.80;99.90;;;;;;5113755;28;20200;-61
2021/12/29 05:24:23;;;;;;;13.35;9.15;;;8.70;99.90;;;;;;5113662;28;20165;-59
2021/12/29 05:26:49;;;;;;;13.55;8.77;;;8.80;99.90;;;;;;5113341;28;20165;-54
2021/12/29 05:29:14;;;;;;;12.63;9.70;;;8.70;99.90;;;;;;5113380;28;20199;-56
2021/12/29 05:31:40;;;;;;;16.85;10.60;;;8.80;99.90;;;;;;5113295;28;20305;-56
2021/12/29 05:34:05;;;;;;;11.88;6.47;;;8.80;99.90;;;;;;5113360;28;20182;-58
2021/12/29 05:36:31;;;;;;;19.52;10.30;;;8.70;99.90;;;;;;5113224;28;20171;-57
2021/12/29 05:38:57;;;;;;;16.85;10.73;;;8.80;99.90;;;;;;5113557;28;20175;-54
2021/12/29 05:41:23;;;;;;;17.92;11.00;;;8.80;99.90;;;;;;5113384;28;20260;-54
2021/12/29 05:43:50;;;;;;;14.98;11.25;;;8.70;99.90;;;;;;5113104;28;20936;-51
2021/12/29 05:46:16;;;;;;;17.77;10.57;;;8.70;99.90;;;;;;5113059;28;20168;-58
2021/12/29 05:48:42;;;;;;;18.52;11.05;;;8.70;99.90;;;;;;5112970;28;20167;-56
2021/12/29 05:51:07;;;;;;;16.55;11.65;;;8.80;99.90;;;;;;5113172;28;20505;-55
2021/12/29 05:53:33;;;;;;;19.80;11.20;;;8.70;99.90;;;;;;5112959;28;20214;-61
2021/12/29 05:55:59;;;;;;;17.33;11.52;;;8.80;99.90;;;;;;5113494;28;20579;-53
2021/12/29 05:58:24;;;;;;;15.20;9.95;;;8.70;99.90;;;;;;5112838;28;20252;-55
2021/12/29 06:00:50;;;;;;;20.77;10.48;;;8.70;99.90;;;;;;5112753;28;20255;-57
2021/12/29 06:03:16;;;;;;;15.45;10.88;;;8.80;99.90;;;;;;5112688;28;20257;-56
2021/12/29 06:05:41;;;;;;;16.17;11.20;;;8.70;99.90;;;;;;5113036;28;20173;-56
2021/12/29 06:08:07;;;;;;;13.40;9.45;;;8.70;99.90;;;;;;5112642;28;20171;-57
2021/12/29 06:10:33;;;;;;;15.85;10.88;;;8.70;99.90;;;;;;5112578;28;20205;-57
2021/12/29 06:13:00;;;;;;;17.50;10.43;;;8.70;99.90;;;;;;5112994;28;20246;-60
2021/12/29 06:15:25;;;;;;;15.63;11.02;;;8.70;99.90;;;;;;5112955;28;20234;-58
2021/12/29 06:17:51;;;;;;;16.08;10.63;;;8.70;99.90;;;;;;5112561;28;20655;-56
2021/12/29 06:20:17;;;;;;;20.23;11.00;;;8.70;99.90;;;;;;5112749;28;20165;-55
2021/12/29 06:22:43;;;;;;;18.40;11.40;;;8.70;99.90;;;;;;5111783;28;20598;-56
2021/12/29 06:25:12;;;;;;;19.08;11.15;;;8.70;99.90;;;;;;5112305;28;20157;-60
2021/12/29 06:27:38;;;;;;;18.58;11.65;;;8.70;99.90;;;;;;5112262;28;20160;-55
2021/12/29 06:30:06;;;;;;;16.95;11.02;;;8.70;99.90;;;;;;5112329;28;20161;-53
2021/12/29 06:32:31;;;;;;;13.38;11.18;;;8.80;99.90;;;;;;5112525;28;20172;-61
2021/12/29 06:34:57;;;;;;;23.40;11.90;;;8.70;99.90;;;;;;5112839;28;20266;-61
2021/12/29 06:37:23;;;;;;;16.52;11.82;;;8.70;99.90;;;;;;5112270;28;20643;-61
2021/12/29 06:39:49;;;;;;;19.23;11.13;;;8.70;99.90;;;;;;5112221;28;20255;-59
2021/12/29 06:42:16;;;;;;;15.48;10.40;;;8.80;99.90;;;;;;5112019;28;20643;-61
2021/12/29 06:44:43;;;;;;;17.08;11.38;;;8.80;99.90;;;;;;5112411;28;20176;-60
2021/12/29 06:47:09;;;;;;;20.65;12.32;;;8.80;99.90;;;;;;5112036;28;20156;-60
2021/12/29 06:49:35;;;;;;;16.80;11.82;;;8.90;99.90;;;;;;5111989;28;20681;-60
2021/12/29 06:52:02;;;;;;;18.63;11.15;;;8.90;99.90;;;;;;5111494;28;20176;-60
2021/12/29 06:54:28;;;;;;;13.65;9.77;;;8.90;99.90;;;;;;5112152;28;20184;-61
2021/12/29 06:56:54;;;;;;;14.13;9.73;;;8.90;99.90;;;;;;5112169;28;20173;-61
2021/12/29 06:59:20;;;;;;;15.18;9.43;;;8.80;99.90;;;;;;5112070;28;20723;-61
2021/12/29 07:01:46;;;;;;;15.80;9.85;;;8.80;99.90;;;;;;5112084;28;20286;-63
2021/12/29 07:04:11;;;;;;;13.00;9.73;;;8.80;99.90;;;;;;5111820;28;20173;-61
2021/12/29 07:06:37;;;;;;;13.63;9.18;;;8.80;99.90;;;;;;5112009;28;20282;-61
2021/12/29 07:09:03;;;;;;;15.57;9.25;;;8.80;99.90;;;;;;5112236;28;20173;-60
2021/12/29 07:11:29;;;;;;;15.68;9.43;;;8.80;99.90;;;;;;5093911;28;20698;-60
2021/12/29 07:13:56;;;;;;;16.17;9.68;;;8.80;99.90;;;;;;5112053;28;20244;-60
2021/12/29 07:16:22;;;;;;;12.95;8.55;;;8.80;99.90;;;;;;5112102;28;20248;-60
2021/12/29 07:18:48;;;;;;;13.82;9.25;;;8.80;99.90;;;;;;5111984;28;20688;-60
2021/12/29 07:21:15;;;;;;;9.95;7.57;;;8.80;99.90;;;;;;5112250;28;20165;-61
2021/12/29 07:23:40;;;;;;;12.05;8.20;;;8.80;99.90;;;;;;5093821;28;20196;-60
2021/12/29 07:26:06;;;;;;;13.68;9.23;;;8.80;99.90;;;;;;5112011;28;20184;-58
2021/12/29 07:28:32;;;;;;;11.95;7.75;;;8.80;99.90;;;;;;5111891;28;20165;-60
2021/12/29 07:30:57;;;;;;;14.25;7.55;;;8.80;99.90;;;;;;5112273;28;20172;-60
2021/12/29 07:33:23;;;;;;;9.68;7.13;;;8.80;99.90;;;;;;5112454;28;20169;-60
2021/12/29 07:35:49;;;;;;;11.00;6.97;;;8.80;99.90;;;;;;5115645;28;20171;-60
2021/12/29 07:38:14;;;;;;;13.90;6.93;;;8.80;99.90;;;;;;5115548;28;20524;-60
2021/12/29 07:40:40;;;;;;;10.88;6.57;;;8.80;99.90;;;;;;5115577;28;20169;-61
2021/12/29 07:43:06;;;;;;;9.45;6.57;;;8.80;99.90;;;;;;5115383;28;20287;-59
2021/12/29 07:45:32;;;;;;;13.35;6.10;;;8.90;99.90;;;;;;5115185;28;20168;-60
2021/12/29 07:47:57;;;;;;;11.52;6.53;;;8.90;99.90;;;;;;5115733;28;20187;-61
2021/12/29 07:50:23;;;;;;;10.70;6.63;;;8.90;99.90;;;;;;5115503;28;20168;-61
2021/12/29 07:52:48;;;;;;;10.48;5.90;;;8.80;99.90;;;;;;5115251;28;20190;-61
2021/12/29 07:55:16;;;;;;;10.25;6.03;;;8.90;99.90;;;;;;5115529;28;20200;-58
2021/12/29 07:57:41;;;;;;;9.85;6.35;;;8.80;99.90;;;;;;5115181;28;20524;-61
2021/12/29 08:00:08;;;;;;;9.93;6.25;;;8.90;99.90;;;;;;5115241;28;20161;-61
2021/12/29 08:02:35;;;;;;;9.45;6.10;;;8.90;99.90;;;;;;5114949;28;20664;-61
2021/12/29 08:05:01;;;;;;;12.18;6.18;;;8.80;99.90;;;;;;5096765;28;20169;-61
2021/12/29 08:07:27;;;;;;;9.13;6.25;;;8.90;99.90;;;;;;5115170;28;20175;-61
2021/12/29 08:09:53;;;;;;;9.00;5.78;;;8.90;99.90;;;;;;5096216;28;20175;-61
2021/12/29 08:12:19;;;;;;;7.70;5.78;;;8.90;99.90;;;;;;5114748;28;20212;-61
2021/12/29 08:14:46;;;;;;;11.18;6.63;;;8.90;99.90;;;;;;5114850;28;20176;-61
2021/12/29 08:17:12;;;;;;;13.63;6.72;;;8.90;99.90;;;;;;5114889;28;20179;-61
2021/12/29 08:19:38;;;;;;;8.75;5.70;;;8.90;99.90;;;;;;5114720;28;20161;-60
2021/12/29 08:22:04;;;;;;;9.63;6.18;;;8.90;99.90;;;;;;5114773;28;20203;-59
2021/12/29 08:24:30;;;;;;;11.93;6.53;;;8.90;99.90;;;;;;5114725;28;20172;-58
2021/12/29 08:26:55;;;;;;;11.95;6.43;;;9.00;99.90;;;;;;5114870;28;20232;-59
2021/12/29 08:29:21;;;;;;;10.98;6.43;;;9.00;99.90;;;;;;5095712;28;20172;-60
2021/12/29 08:31:47;;;;;;;8.02;5.15;;;9.00;99.90;;;;;;5114382;28;20173;-61
2021/12/29 08:34:12;;;;;;;9.68;6.32;;;9.00;99.90;;;;;;5114481;28;20169;-61
2021/12/29 08:36:38;;;;;;;8.93;5.95;;;9.00;99.90;;;;;;5114701;28;20222;-60
2021/12/29 08:39:04;;;;;;;8.68;5.20;;;9.00;99.90;;;;;;5114550;28;20176;-60
2021/12/29 08:41:30;;;;;;;7.18;5.60;;;9.00;99.90;;;;;;5114313;28;20169;-59
2021/12/29 08:43:55;;;;;;;6.45;5.55;;;9.00;99.90;;;;;;5114507;28;20177;-60
2021/12/29 08:46:22;;;;;;;8.77;6.20;;;9.00;99.90;;;;;;5114001;28;20163;-60
2021/12/29 08:48:48;;;;;;;9.40;5.50;;;9.00;99.90;;;;;;5113990;28;20620;-60
2021/12/29 08:51:15;;;;;;;11.15;5.65;;;9.10;99.90;;;;;;5095647;28;20171;-61
2021/12/29 08:53:40;;;;;;;7.28;5.30;;;9.10;99.90;;;;;;5114310;28;20169;-61
2021/12/29 08:56:07;;;;;;;8.30;5.30;;;9.10;99.90;;;;;;5113954;28;20573;-60
2021/12/29 08:58:32;;;;;;;7.57;5.15;;;9.10;99.90;;;;;;5114030;28;20153;-59
2021/12/29 09:00:59;;;;;;;5.88;5.15;;;9.20;99.90;;;;;;5114347;28;20658;-61
2021/12/29 09:03:25;;;;;;;7.95;5.18;;;9.20;99.90;;;;;;5114274;28;20208;-60
2021/12/29 09:05:51;;;;;;;8.02;5.78;;;9.10;99.90;;;;;;5113800;28;20741;-59
2021/12/29 09:08:17;;;;;;;9.50;5.55;;;9.20;99.90;;;;;;5113811;28;20213;-52
2021/12/29 09:10:44;;;;;;;9.30;4.90;;;9.20;99.90;;;;;;5108727;28;20216;-61
2021/12/29 09:13:10;;;;;;;9.27;5.63;;;9.20;99.90;;;;;;5112519;28;20173;-51
2021/12/29 09:15:36;;;;;;;7.30;5.20;;;9.20;99.90;;;;;;5112531;28;20564;-55
2021/12/29 09:18:02;;;;;;;7.88;5.20;;;9.20;99.90;;;;;;5112421;28;20168;-56
2021/12/29 09:20:31;;;;;;;6.10;5.30;;;9.20;99.90;;;;;;5112425;28;20635;-54
2021/12/29 09:23:08;;;;;;;7.90;5.50;;;9.20;99.90;;;;;;5112469;28;20227;-62
2021/12/29 09:25:36;;;;;;;6.97;4.95;;;9.20;99.90;;;;;;5112002;28;20167;-56
2021/12/29 09:28:03;;;;;;;6.97;5.13;;;9.30;99.90;;;;;;5112061;28;20233;-60
2021/12/29 09:30:31;;;;;;;7.00;5.78;;;9.30;99.90;;;;;;5112371;28;20209;-57
2021/12/29 09:32:56;;;;;;;5.63;4.53;;;9.40;99.90;;;;;;5111959;28;20196;-59
2021/12/29 09:35:23;;;;;;;8.43;4.72;;;9.40;99.90;;;;;;5112219;28;20203;-57
2021/12/29 09:37:50;;;;;;;7.47;4.75;;;9.40;99.90;;;;;;5111666;28;20165;-59
2021/12/29 09:40:17;;;;;;;8.10;4.80;;;9.40;99.90;;;;;;5111817;28;20164;-49
2021/12/29 09:42:43;;;;;;;7.45;5.07;;;9.40;99.90;;;;;;5111887;28;20204;-52
2021/12/29 09:45:09;;;;;;;9.88;5.90;;;9.40;99.90;;;;;;5111731;28;20209;-48
2021/12/29 09:47:36;;;;;;;7.72;6.28;;;9.40;99.90;;;;;;5093458;28;20180;-48
2021/12/29 09:50:08;;;;;;;9.27;6.80;;;9.40;99.90;;;;;;5111705;28;20161;-49
2021/12/29 09:52:34;;;;;;;14.70;6.80;;;9.40;99.90;;;;;;5111655;28;20176;-49
2021/12/29 09:55:04;;;;;;;8.32;7.10;;;9.40;99.90;;;;;;5111879;28;20255;-53
2021/12/29 09:57:35;;;;;;;7.53;6.15;;;9.40;99.90;;;;;;5111127;28;20192;-52
2021/12/29 10:00:07;;;;;;;8.90;6.22;;;9.50;99.90;;;;;;5111381;28;20179;-53
2021/12/29 10:02:33;;;;;;;9.18;5.68;;;9.50;99.90;;;;;;5111332;28;20247;-54
2021/12/29 10:04:59;;;;;;;11.52;5.28;;;9.60;99.90;;;;;;5111707;28;20238;-55
2021/12/29 10:07:26;;;;;;;9.10;5.38;;;9.60;99.90;;;;;;5111524;28;20164;-55
2021/12/29 10:09:52;;;;;;;9.60;5.18;;;9.60;99.90;;;;;;5111125;28;20168;-54
2021/12/29 10:12:21;;;;;;;7.90;5.38;;;9.60;99.90;;;;;;5111006;28;20220;-59
2021/12/29 10:14:58;;;;;;;7.03;5.07;;;9.70;99.90;;;;;;5111443;28;20172;-57
2021/12/29 10:17:28;;;;;;;12.18;5.55;;;9.80;99.90;;;;;;5111153;28;20251;-55
2021/12/29 10:20:03;;;;;;;12.82;5.10;;;9.90;99.90;;;;;;5110976;28;20175;-56
2021/12/29 10:22:29;;;;;;;16.42;6.45;;;9.90;99.90;;;;;;5111259;28;20651;-52
2021/12/29 10:25:07;;;;;;;9.88;5.55;;;9.90;99.90;;;;;;5111146;28;20499;-55
2021/12/29 10:27:33;;;;;;;14.50;5.57;;;10.00;99.90;;;;;;5110840;28;20491;-54
2021/12/29 10:29:59;;;;;;;15.75;6.43;;;10.00;99.90;;;;;;5111213;28;20172;-55
2021/12/29 10:32:25;;;;;;;12.38;5.85;;;10.00;99.90;;;;;;5111286;28;20669;-54
2021/12/29 10:34:53;;;;;;;13.82;5.45;;;10.10;99.90;;;;;;5110468;28;20199;-55
2021/12/29 10:37:23;;;;;;;14.70;5.88;;;10.10;99.90;;;;;;5110834;28;20538;-62
2021/12/29 10:39:51;;;;;;;12.65;5.53;;;10.10;99.90;;;;;;5110774;28;20247;-58
2021/12/29 10:42:20;;;;;;;11.00;6.10;;;10.10;99.90;;;;;;5110748;28;20276;-51
2021/12/29 10:44:56;;;;;;;13.68;5.63;;;10.10;99.90;;;;;;5110642;28;20516;-55
2021/12/29 10:47:22;;;;;;;12.10;5.95;;;10.00;99.90;;;;;;5111182;28;20162;-55
2021/12/29 10:50:00;;;;;;;11.90;5.15;;;10.00;99.90;;;;;;5110584;28;20606;-56
2021/12/29 10:52:44;;;;;;;13.00;5.13;;;10.00;99.90;;;;;;5111201;28;20161;-55
2021/12/29 10:55:14;;;;;;;11.80;5.32;;;10.00;99.90;;;;;;5092450;28;20196;-55
2021/12/29 10:57:40;;;;;;;11.82;5.40;;;10.00;99.90;;;;;;5110877;28;20171;-55
2021/12/29 11:00:12;;;;;;;11.70;6.05;;;10.00;99.90;;;;;;5111127;28;20537;-56
2021/12/29 11:02:38;;;;;;;14.27;5.60;;;10.00;99.90;;;;;;5110585;28;20269;-55
2021/12/29 11:05:10;;;;;;;10.55;4.93;;;10.00;99.90;;;;;;5092621;28;20280;-56
2021/12/29 11:07:37;;;;;;;14.45;5.10;;;10.00;99.90;;;;;;5111460;28;20654;-55
2021/12/29 11:10:17;;;;;;;8.23;4.15;;;10.00;99.90;;;;;;5114761;28;20200;-56
2021/12/29 11:12:52;;;;;;;10.38;4.38;;;10.10;99.90;;;;;;5114717;28;20184;-56
2021/12/29 11:15:24;;;;;;;8.75;4.38;;;10.10;99.90;;;;;;5114960;28;20210;-55
2021/12/29 11:17:51;;;;;;;9.13;4.20;;;10.10;99.90;;;;;;5114339;28;20197;-54
2021/12/29 11:20:19;;;;;;;13.43;4.72;;;10.20;99.90;;;;;;5114368;28;20558;-55
2021/12/29 11:22:45;;;;;;;12.85;3.63;;;10.20;99.90;;;;;;5114197;28;20541;-55
2021/12/29 11:25:10;;;;;;;7.43;3.88;;;10.20;99.90;;;;;;5114143;28;20167;-53
2021/12/29 11:27:37;;;;;;;6.03;3.15;;;10.20;99.90;;;;;;5114316;28;20173;-55
2021/12/29 11:30:12;;;;;;;10.93;3.40;;;10.20;99.90;;;;;;5095968;28;20164;-55
2021/12/29 11:32:45;;;;;;;8.82;2.90;;;10.20;99.90;;;;;;5096006;28;20657;-55
2021/12/29 11:35:17;;;;;;;8.43;3.00;;;10.30;99.90;;;;;;5113023;28;20157;-54
2021/12/29 11:37:54;;;;;;;9.00;3.15;;;10.30;99.90;;;;;;5112914;28;20533;-55
2021/12/29 11:40:27;;;;;;;12.68;2.72;;;10.30;99.90;;;;;;5112581;28;20665;-56
2021/12/29 11:42:54;;;;;;;6.60;2.85;;;10.30;99.90;;;;;;5109510;28;20232;-55
2021/12/29 11:45:20;;;;;;;6.55;2.85;;;10.30;99.90;;;;;;5112608;28;20191;-56
2021/12/29 11:47:47;;;;;;;7.30;2.95;;;10.40;99.90;;;;;;5073525;28;20641;-51
2021/12/29 11:50:21;;;;;;;9.20;2.53;;;10.40;99.90;;;;;;5093343;28;20157;-52
2021/12/29 11:52:58;;;;;;;6.78;2.78;;;10.40;99.90;;;;;;5093600;28;20165;-56
2021/12/29 11:55:30;;;;;;;6.05;1.90;;;10.40;99.90;;;;;;5092253;28;20527;-55
2021/12/29 11:58:09;;;;;;;7.95;2.85;;;10.30;99.90;;;;;;5104832;28;20226;-54
2021/12/29 12:00:35;;;;;;;11.80;2.00;;;10.30;99.90;;;;;;5112412;28;20561;-54
2021/12/29 12:03:14;;;;;;;4.00;2.08;;;10.30;99.90;;;;;;5111635;28;20215;-55
2021/12/29 12:05:42;;;;;;;4.65;2.20;;;10.30;99.90;;;;;;5112089;28;20164;-56
2021/12/29 12:08:14;;;;;;;4.28;2.42;;;10.30;99.90;;;;;;5111934;28;20569;-57
2021/12/29 12:10:41;;;;;;;4.25;2.20;;;10.30;99.90;;;;;;5113314;28;20205;-57
2021/12/29 12:13:25;;;;;;;7.70;2.45;;;10.30;99.90;;;;;;5113805;28;20180;-55
2021/12/29 12:15:52;;;;;;;4.93;2.15;;;10.20;99.90;;;;;;5113679;28;20164;-56
2021/12/29 12:18:18;;;;;;;5.07;2.28;;;10.20;99.90;;;;;;5113537;28;20172;-55
2021/12/29 12:20:47;;;;;;;12.45;6.90;;;10.20;99.90;;;;;;5112598;28;20688;-56
2021/12/29 12:23:23;;;;;;;16.85;7.65;;;10.20;99.90;;;;;;5113266;28;20552;-54
2021/12/29 12:25:49;;;;;;;9.18;3.47;;;10.20;99.90;;;;;;5113274;28;20164;-56
2021/12/29 12:28:21;;;;;;;7.95;3.80;;;10.20;99.90;;;;;;5113435;28;20238;-55
2021/12/29 12:30:49;;;;;;;9.35;2.97;;;10.30;99.90;;;;;;5112952;28;20228;-55
2021/12/29 12:33:25;;;;;;;10.85;4.18;;;10.20;99.90;;;;;;5113391;28;20181;-54
2021/12/29 12:35:53;;;;;;;8.07;3.40;;;10.20;99.90;;;;;;5112052;28;20195;-54
2021/12/29 12:38:27;;;;;;;6.82;4.32;;;10.10;99.90;;;;;;5112791;28;20164;-55
2021/12/29 12:41:16;;;;;;;9.88;4.35;;;10.10;99.90;;;;;;5113177;28;20171;-56
2021/12/29 12:44:01;;;;;;;5.45;3.60;;;10.10;99.90;;;;;;5113045;28;20287;-53
2021/12/29 12:46:36;;;;;;;4.82;2.88;;;10.10;99.90;;;;;;5119708;27;20183;-54
2021/12/29 12:49:18;;;;;;;8.90;4.50;;;10.10;99.90;;;;;;5110472;27;20183;-55
2021/12/29 12:52:07;;;;;;;9.98;2.20;;;10.00;99.90;;;;;;5133654;27;20233;-56
2021/12/29 12:54:46;;;;;;;3.50;2.03;;;10.10;99.90;;;;;;5133305;27;20224;-52
2021/12/29 12:57:12;;;;;;;8.73;4.35;;;10.10;99.90;;;;;;5133235;27;20160;-56